Terminal Aerodrome Forecast
Issued by NWS Cleveland, OH

Home | Current Version | Previous Version | Text Only | Print | Product List | Glossary On
Versions: 1 2 3 4 5 6 7 8 9 10 11 12 13 14 15 16 17 18 19 20 21 22 23 24 25 26
701
FTUS41 KCLE 270534
TAFCLE
TAF
KCLE 270534Z 2706/2812 14005KT P6SM SCT050 BKN250
     FM270700 14006KT 6SM -SHRA BR SCT025 OVC040
      TEMPO 2709/2713 BKN025 OVC040
     FM271300 09008KT P6SM SCT025 OVC040
     FM271800 01006KT P6SM BKN050
     FM272100 01006KT P6SM SCT050 BKN120
     FM280500 12003KT P6SM BKN250=

USA.gov is the U.S. government's official web portal to all federal, state and local government web resources and services.